Date,TemperatureHighF,TemperatureAvgF,TemperatureLowF,DewpointHighF,DewpointAvgF,DewpointLowF,HumidityHigh,HumidityAvg,HumidityLow,PressureMaxIn,PressureMinIn,WindSpeedMaxMPH,WindSpeedAvgMPH,GustSpeedMaxMPH,PrecipitationSumIn
2014-1-1,35,25,16,25,19,12,83,76,64,30.18,30.06,0,0,0,0.00
2014-1-2,19,12,0,12,5,-6,83,74,64,30.49,30.18,0,0,0,0.00
2014-1-3,31,14,-4,18,6,-9,80,70,56,30.49,29.91,0,0,0,0.00
2014-1-4,44,33,22,31,23,16,79,67,57,30.03,29.87,0,0,0,0.00
2014-1-5,22,12,0,17,5,-11,83,74,58,30.40,29.99,0,0,0,0.00
2014-1-6,2,-4,-9,-11,-15,-20,65,59,54,30.51,30.40,0,0,0,0.00
2014-1-7,29,12,-6,15,3,-14,74,65,53,30.42,30.13,0,0,0,0.00
2014-1-8,26,18,11,14,9,4,77,70,59,30.44,30.22,0,0,0,0.00
2014-1-9,33,26,17,30,21,10,90,83,74,30.41,30.11,0,0,0,0.00
2014-1-10,43,38,33,42,36,30,93,92,90,30.12,29.56,0,0,0,0.00
2014-1-11,46,38,31,38,33,26,93,82,67,29.95,29.58,0,0,0,0.00
2014-1-12,62,44,27,39,32,24,90,66,40,29.95,29.57,0,0,0,0.00
2014-1-13,52,41,26,38,31,21,81,67,55,29.89,29.61,0,0,0,0.00
2014-1-14,45,35,26,35,24,14,83,65,46,30.14,29.74,0,0,0,0.00
2014-1-15,30,24,18,16,13,9,67,62,56,30.24,29.88,0,0,0,0.00
2014-1-16,49,34,16,32,24,5,80,66,48,29.98,29.69,0,0,0,0.00
2014-1-17,26,19,14,13,9,4,72,65,57,30.12,29.97,0,0,0,0.00
2014-1-18,47,30,15,33,21,8,77,69,54,30.06,29.66,0,0,0,0.00
2014-1-19,53,36,20,30,24,15,80,62,41,30.08,29.76,0,0,0,0.00
2014-1-20,51,40,27,35,28,20,79,64,52,30.07,29.81,0,0,0,0.00
2014-1-21,29,15,6,22,5,-2,77,65,52,30.44,30.07,0,0,0,0.00
2014-1-22,37,23,8,17,10,-5,66,57,41,30.43,30.04,0,0,0,0.00
2014-1-23,16,8,1,-1,-5,-10,65,56,43,30.75,30.43,0,0,0,0.00
2014-1-24,39,22,5,18,5,-5,68,50,34,30.67,29.72,0,0,0,0.00
2014-1-25,42,35,25,32,15,3,76,46,25,30.00,29.69,0,0,0,0.00
2014-1-26,56,42,19,35,25,-1,65,51,40,30.14,29.58,0,0,0,0.00
2014-1-27,19,10,4,-1,-7,-11,55,45,40,30.51,30.14,0,0,0,0.00
2014-1-28,20,9,-1,0,-4,-9,73,56,40,30.53,30.33,0,0,0,0.00
2014-1-29,39,23,8,14,7,-1,69,52,35,30.34,30.04,0,0,0,0.00
2014-1-30,45,40,29,21,19,12,49,43,37,29.95,29.84,0,0,0,0.00
2014-1-31,25,22,21,19,17,14,85,78,65,30.09,30.00,0,0,0,0.00
2014-2-1,30,26,25,27,22,21,89,86,86,30.15,29.83,0,0,0,0.00
2014-2-2,21,17,11,14,10,5,79,74,70,30.37,30.31,0,0,0,0.00
2014-2-3,26,19,2,17,13,-3,81,76,69,30.37,30.30,0,0,0,0.00
2014-2-4,23,20,18,18,16,14,86,85,83,30.29,30.02,0,0,0,0.00
2014-2-5,21,15,4,15,8,-3,85,75,62,30.62,30.05,0,0,0,0.00
2014-2-6,15,4,-6,2,-5,-13,77,67,55,30.63,30.48,0,0,0,0.00
2014-2-7,24,8,-11,8,-2,-18,77,65,49,30.49,30.28,0,0,0,0.00
2014-2-8,34,24,15,22,17,8,81,74,62,30.28,30.10,0,0,0,0.00
2014-2-9,28,23,13,22,15,4,85,73,60,30.43,30.14,0,0,0,0.00
2014-2-10,16,10,5,4,-1,-4,69,62,52,30.47,30.41,0,0,0,0.00
2014-2-11,18,10,-6,3,-2,-13,73,59,50,30.52,30.34,0,0,0,0.00
2014-2-12,35,23,2,14,10,-4,75,57,43,30.21,30.01,0,0,0,0.00
2014-2-13,43,35,16,31,27,8,77,72,63,29.92,29.75,0,0,0,0.00
2014-2-14,28,23,18,23,16,11,82,74,72,30.08,29.63,0,0,0,0.00
2014-2-15,33,27,10,24,18,5,81,70,60,30.13,29.92,0,0,0,0.00
2014-2-16,37,30,28,27,24,22,82,77,67,30.25,29.98,0,0,0,0.00
2014-2-17,47,36,28,36,28,23,86,76,63,30.10,29.88,0,0,0,0.00
2014-2-18,60,50,35,36,33,27,72,51,38,29.97,29.73,0,0,0,0.00
2014-2-19,53,42,33,38,33,26,77,69,56,29.98,29.82,0,0,0,0.00
2014-2-20,47,41,37,38,33,30,83,74,69,29.73,29.47,0,0,0,0.00
2014-2-21,57,47,30,27,25,19,64,44,31,29.94,29.82,0,0,0,0.00
2014-2-22,57,45,33,35,32,26,77,60,40,30.06,29.92,0,0,0,0.00
2014-2-23,36,32,26,20,17,14,68,54,46,30.34,30.25,0,0,0,0.00
2014-2-24,30,28,24,18,17,15,67,63,58,30.37,30.24,0,0,0,0.00
2014-2-25,26,23,20,17,12,8,77,62,58,30.36,30.28,0,0,0,0.00
2014-2-26,29,23,6,10,6,-5,60,48,38,30.37,29.97,0,0,0,0.00
2014-2-27,22,20,17,10,3,0,66,47,38,30.11,30.07,0,0,0,0.00
2014-2-28,50,41,17,22,19,7,64,42,34,30.02,29.89,0,0,0,0.00
2014-3-1,31,22,16,22,16,12,84,78,68,30.33,30.11,0,0,0,0.00
2014-3-2,16,8,2,12,1,-7,84,75,64,30.47,30.30,0,0,0,0.00
2014-3-3,23,9,-2,8,-2,-11,66,61,50,30.54,30.34,0,0,0,0.00
2014-3-4,44,35,11,21,17,5,77,49,39,30.25,30.08,0,0,0,0.00
2014-3-5,42,34,24,26,23,17,75,65,54,30.31,30.16,0,0,0,0.00
2014-3-6,48,38,25,29,24,20,81,59,48,30.28,30.07,0,0,0,0.00
2014-3-7,63,50,29,35,31,21,72,49,36,29.98,29.88,0,0,0,0.00
2014-3-8,38,35,33,31,29,27,82,79,76,30.33,30.11,0,0,0,0.00
2014-3-9,58,40,24,35,27,20,85,64,40,30.33,30.00,0,0,0,0.00
2014-3-10,76,66,42,41,38,34,77,38,28,29.90,29.72,0,0,0,0.00
2014-3-11,82,54,39,50,40,34,88,67,28,29.71,29.47,0,0,0,0.00
2014-3-12,46,37,33,36,29,25,90,75,49,30.15,29.71,0,0,0,0.00
2014-3-13,64,53,26,36,32,22,84,48,35,30.14,29.91,0,0,0,0.00
2014-3-14,65,53,38,34,30,27,63,42,31,30.03,29.81,0,0,0,0.00
2014-3-15,72,56,31,39,35,25,79,49,26,30.04,29.87,0,0,0,0.00
2014-3-16,44,34,25,35,24,15,76,69,57,30.19,29.98,0,0,0,0.00
2014-3-17,53,42,16,25,21,11,80,44,32,30.00,29.74,0,0,0,0.00
2014-3-18,66,48,34,39,30,21,73,52,37,29.75,29.52,0,0,0,0.00
2014-3-19,49,42,35,39,30,26,78,61,53,30.13,29.75,0,0,0,0.00
2014-3-20,69,61,30,35,31,26,86,35,26,30.10,29.90,0,0,0,0.00
2014-3-21,66,58,43,38,35,27,54,43,36,29.96,29.81,0,0,0,0.00
2014-3-22,48,42,33,25,20,16,71,43,36,30.34,30.21,0,0,0,0.00
2014-3-23,41,36,26,15,12,10,58,38,33,30.46,30.35,0,0,0,0.00
2014-3-24,45,41,27,25,21,15,62,47,36,30.36,30.18,0,0,0,0.00
2014-3-25,41,35,27,22,14,10,80,42,36,30.28,30.21,0,0,0,0.00
2014-3-26,56,49,21,30,23,12,69,37,28,30.28,29.96,0,0,0,0.00
2014-3-27,60,55,44,52,48,37,86,78,68,29.71,29.46,0,0,0,0.00
2014-3-28,49,45,38,38,36,32,80,70,64,30.14,29.92,0,0,0,0.00
2014-3-29,53,48,39,36,34,30,72,58,53,30.26,30.22,0,0,0,0.00
2014-3-30,72,63,33,38,34,28,84,36,26,30.20,29.96,0,0,0,0.00
2014-3-31,71,65,49,45,43,40,69,46,36,29.89,29.71,0,0,0,0.00
2014-4-1,60,52,34,39,34,20,74,51,37,30.08,30.02,0,0,0,0.00
2014-4-2,59,53,43,52,48,40,90,85,77,30.03,29.84,0,0,0,0.00
2014-4-3,60,58,51,57,56,49,93,90,87,29.72,29.56,0,0,0,0.00
2014-4-4,44,42,39,34,32,32,78,68,65,30.16,29.80,0,0,0,0.00
2014-4-5,57,51,44,38,35,33,67,55,47,30.25,30.10,0,0,0,0.00
2014-4-6,65,58,48,43,38,33,72,48,35,30.07,29.89,0,0,0,0.00
2014-4-7,64,59,48,42,39,35,70,50,35,29.80,29.71,0,0,0,0.00
2014-4-8,62,57,47,43,37,31,63,47,40,30.05,29.89,0,0,0,0.00
2014-4-9,71,63,34,38,35,27,78,38,29,30.10,29.91,0,0,0,0.00
2014-4-10,68,62,53,46,41,36,54,46,43,30.00,29.76,0,0,0,0.00
2014-4-11,77,68,39,40,38,33,79,36,26,30.08,29.98,0,0,0,0.00
2014-4-12,86,79,53,61,58,46,76,49,42,29.92,29.66,0,0,0,0.00
2014-4-13,76,67,58,64,59,52,85,74,61,29.72,29.49,0,0,0,0.00
2014-4-14,39,36,33,36,30,26,89,79,72,30.12,29.79,0,0,0,0.00
2014-4-15,52,46,26,29,27,21,81,49,39,30.20,30.14,0,0,0,0.00
2014-4-16,65,57,36,35,32,26,67,39,32,30.13,29.97,0,0,0,0.00
2014-4-17,55,50,44,41,39,32,78,66,56,30.30,30.15,0,0,0,0.00
2014-4-18,70,53,37,47,41,33,85,65,41,30.32,30.20,0,0,0,0.00
2014-4-19,81,69,45,51,47,39,83,47,31,30.28,30.12,0,0,0,0.00
2014-4-20,85,79,69,56,53,50,55,42,35,30.17,30.02,0,0,0,0.00
2014-4-21,79,67,59,60,57,51,86,72,52,30.01,29.90,0,0,0,0.00
2014-4-22,68,62,47,40,38,35,76,42,34,30.06,30.02,0,0,0,0.00
2014-4-23,68,62,45,44,42,35,67,48,43,30.06,29.92,0,0,0,0.00
2014-4-24,76,61,53,55,52,38,88,76,44,29.80,29.57,0,0,0,0.00
2014-4-25,79,70,46,49,46,42,86,43,31,29.92,29.86,0,0,0,0.00
2014-4-26,73,68,53,56,51,43,68,54,45,29.89,29.74,0,0,0,0.00
2014-4-27,83,72,63,67,61,50,86,68,53,29.71,29.48,0,0,0,0.00
2014-4-28,72,65,57,53,49,46,87,57,50,29.49,29.42,0,0,0,0.00
2014-4-29,53,52,50,47,45,41,87,78,67,29.70,29.47,0,0,0,0.00
2014-4-30,53,49,42,42,39,36,81,69,62,29.94,29.85,0,0,0,0.00
2014-5-1,57,52,44,44,42,37,79,69,58,29.98,29.89,0,0,0,0.00
2014-5-2,67,61,47,45,42,40,77,50,42,29.95,29.83,0,0,0,0.00
2014-5-3,79,72,54,49,47,41,64,42,33,29.96,29.90,0,0,0,0.00
2014-5-4,81,73,49,56,52,44,84,49,42,29.97,29.82,0,0,0,0.00
2014-5-5,82,73,52,56,52,43,73,47,40,29.81,29.74,0,0,0,0.00
2014-5-6,91,84,55,66,59,45,70,45,36,29.83,29.61,0,0,0,0.00
2014-5-7,91,85,68,68,65,58,70,51,43,29.77,29.72,0,0,0,0.00
2014-5-8,82,69,66,66,63,61,87,80,58,29.89,29.77,0,0,0,0.00
2014-5-9,78,67,54,62,55,44,91,69,36,29.92,29.76,3,0,4,0.02
2014-5-10,84,67,50,62,54,48,97,69,35,29.95,29.75,12,0,12,1.03
2014-5-11,87,72,62,70,64,59,96,77,49,29.96,29.74,29,2,29,0.00
2014-5-12,88,75,60,72,67,58,97,78,51,29.93,29.75,13,1,13,1.02
2014-5-13,60,54,49,58,50,48,96,89,74,30.23,29.93,5,0,5,0.00
2014-5-14,53,49,45,48,43,38,97,79,57,30.24,30.08,2,0,3,0.00
2014-5-15,59,51,44,52,41,31,92,70,40,30.11,30.03,8,0,8,0.11
2014-5-16,49,42,39,39,37,36,91,84,60,30.10,30.07,5,0,5,0.00
2014-5-19,80,80,79,60,60,59,51,51,51,29.83,29.83,8,5,12,0.00